Time;durP1;ratioP1;P1;durP2;ratioP2;P2;SDS_P1;SDS_P2;PMS_P1;PMS_P2;Temp;Humidity;BMP_temperature;BMP_pressure;BME280_temperature;BME280_humidity;BME280_pressure;Samples;Min_cycle;Max_cycle;Signal;HPM_P1;HPM_P2
2024/03/12 00:01:55;;;;;;;2.85;2.60;;;6.10;99.90;;;;;;5090775;27;20205;-76
2024/03/12 00:04:23;;;;;;;3.35;3.05;;;6.10;99.90;;;;;;5047557;27;20669;-76
2024/03/12 00:06:50;;;;;;;3.97;2.90;;;6.10;99.90;;;;;;5020480;28;20557;-76
2024/03/12 00:09:17;;;;;;;3.10;2.90;;;6.00;99.90;;;;;;5016202;28;20291;-76
2024/03/12 00:11:45;;;;;;;3.40;3.20;;;6.00;99.90;;;;;;5023111;28;20202;-76
2024/03/12 00:14:12;;;;;;;4.15;3.20;;;5.90;99.90;;;;;;5025314;28;20194;-76
2024/03/12 00:16:40;;;;;;;3.42;2.60;;;5.90;99.90;;;;;;5076248;27;20221;-76
2024/03/12 00:19:09;;;;;;;3.87;3.27;;;6.00;99.90;;;;;;5085372;27;20202;-76
2024/03/12 00:21:36;;;;;;;3.70;3.40;;;6.00;99.90;;;;;;5080546;27;20967;-76
2024/03/12 00:24:04;;;;;;;3.40;3.10;;;6.00;99.90;;;;;;5092092;27;20559;-76
2024/03/12 00:26:32;;;;;;;3.30;3.00;;;5.90;99.90;;;;;;5031853;28;20209;-76
2024/03/12 00:28:59;;;;;;;4.15;3.55;;;5.80;99.90;;;;;;5040982;28;20208;-76
2024/03/12 00:31:26;;;;;;;3.40;3.10;;;5.70;99.90;;;;;;5073036;27;20205;-76
2024/03/12 00:33:55;;;;;;;3.70;3.40;;;5.80;99.90;;;;;;5045475;27;20220;-76
2024/03/12 00:36:22;;;;;;;2.95;2.75;;;5.60;99.90;;;;;;5026599;28;20197;-76
2024/03/12 00:38:48;;;;;;;8.93;6.35;;;5.50;99.90;;;;;;5025306;28;20203;-76
2024/03/12 00:41:15;;;;;;;5.90;4.25;;;5.60;99.90;;;;;;5053629;27;20696;-76
2024/03/12 00:43:42;;;;;;;9.45;5.38;;;5.60;99.90;;;;;;5071125;27;20615;-76
2024/03/12 00:46:10;;;;;;;5.80;4.93;;;5.60;99.90;;;;;;5020200;28;20193;-76
2024/03/12 00:48:38;;;;;;;6.38;4.38;;;5.70;99.90;;;;;;5015002;28;20565;-76
2024/03/12 00:51:08;;;;;;;5.15;4.65;;;5.70;99.90;;;;;;5022490;28;20212;-76
2024/03/12 00:53:35;;;;;;;7.22;3.92;;;5.70;99.90;;;;;;5040680;27;20213;-76
2024/03/12 00:56:03;;;;;;;4.50;4.10;;;5.80;99.90;;;;;;5039279;28;20223;-76
2024/03/12 00:58:32;;;;;;;4.18;3.88;;;5.80;99.90;;;;;;5031976;28;20550;-76
2024/03/12 01:00:59;;;;;;;3.78;3.38;;;5.70;99.90;;;;;;5052020;27;20240;-76
2024/03/12 01:03:27;;;;;;;6.82;4.25;;;5.70;99.90;;;;;;5017437;28;20220;-76
2024/03/12 01:05:54;;;;;;;4.20;3.80;;;5.50;99.90;;;;;;5064993;27;20213;-76
2024/03/12 01:08:23;;;;;;;4.60;3.63;;;5.60;99.90;;;;;;5029944;27;20201;-76
2024/03/12 01:10:51;;;;;;;3.85;3.55;;;5.60;99.90;;;;;;5047115;27;20198;-76
2024/03/12 01:13:20;;;;;;;5.28;4.50;;;5.60;99.90;;;;;;5062801;27;20193;-76
2024/03/12 01:15:48;;;;;;;4.90;4.32;;;5.60;99.90;;;;;;5008366;28;20210;-75
2024/03/12 01:18:14;;;;;;;4.80;4.38;;;5.50;99.90;;;;;;5029128;28;20230;-76
2024/03/12 01:20:41;;;;;;;4.88;4.38;;;5.50;99.90;;;;;;5040715;28;20283;-76
2024/03/12 01:23:08;;;;;;;3.90;3.60;;;5.50;99.90;;;;;;5032011;27;20291;-75
2024/03/12 01:25:36;;;;;;;4.10;3.70;;;5.50;99.90;;;;;;5025930;28;20711;-75
2024/03/12 01:28:05;;;;;;;4.55;4.05;;;5.50;99.90;;;;;;5030697;28;20291;-75
2024/03/12 01:30:32;;;;;;;4.38;3.83;;;5.50;99.90;;;;;;5012264;28;20213;-75
2024/03/12 01:32:59;;;;;;;7.95;3.83;;;5.50;99.90;;;;;;5033909;28;20213;-75
2024/03/12 01:35:25;;;;;;;4.13;3.70;;;5.40;99.90;;;;;;5028978;28;20205;-75
2024/03/12 01:37:53;;;;;;;5.45;3.40;;;5.40;99.90;;;;;;5016256;28;20217;-75
2024/03/12 01:40:22;;;;;;;5.30;4.05;;;5.40;99.90;;;;;;5049323;27;20205;-75
2024/03/12 01:42:53;;;;;;;4.75;3.17;;;5.30;99.90;;;;;;5069804;27;20595;-75
2024/03/12 01:45:22;;;;;;;3.75;3.45;;;5.30;99.90;;;;;;5025036;28;20206;-75
2024/03/12 01:47:49;;;;;;;3.58;3.25;;;5.30;99.90;;;;;;5023298;28;20284;-75
2024/03/12 01:50:18;;;;;;;4.28;3.95;;;5.20;99.90;;;;;;5031208;27;20306;-75
2024/03/12 01:52:45;;;;;;;4.85;3.47;;;5.30;99.90;;;;;;5068632;27;20209;-75
2024/03/12 01:55:11;;;;;;;4.53;4.13;;;5.30;99.90;;;;;;5011626;28;20569;-75
2024/03/12 01:57:41;;;;;;;3.55;3.22;;;5.20;99.90;;;;;;5045278;28;20216;-76
2024/03/12 02:00:13;;;;;;;4.40;3.85;;;5.20;99.90;;;;;;5030149;27;20580;-75
2024/03/12 02:02:41;;;;;;;4.55;4.13;;;5.20;99.90;;;;;;5027673;28;20228;-75
2024/03/12 02:05:10;;;;;;;3.83;3.53;;;5.20;99.90;;;;;;5027127;28;20204;-75
2024/03/12 02:07:39;;;;;;;3.83;3.53;;;5.10;99.90;;;;;;5020208;28;20196;-76
2024/03/12 02:10:08;;;;;;;3.00;2.80;;;5.20;99.90;;;;;;5041177;28;20193;-76
2024/03/12 02:12:36;;;;;;;3.83;3.20;;;5.20;99.90;;;;;;5038544;28;20195;-75
2024/03/12 02:15:04;;;;;;;3.42;3.13;;;5.30;99.90;;;;;;5026091;28;20204;-75
2024/03/12 02:17:34;;;;;;;3.72;3.40;;;5.30;99.90;;;;;;5047733;27;20568;-75
2024/03/12 02:20:04;;;;;;;4.05;3.35;;;5.30;99.90;;;;;;5034302;28;20707;-75
2024/03/12 02:22:32;;;;;;;6.32;3.83;;;5.30;99.90;;;;;;5039654;27;20193;-75
2024/03/12 02:25:03;;;;;;;4.75;3.95;;;5.30;99.90;;;;;;5038359;28;20691;-75
2024/03/12 02:27:31;;;;;;;3.25;2.90;;;5.30;99.90;;;;;;5064878;27;20193;-75
2024/03/12 02:29:58;;;;;;;3.70;3.40;;;5.20;99.90;;;;;;5023295;28;20204;-75
2024/03/12 02:32:26;;;;;;;4.25;3.70;;;5.20;99.90;;;;;;5031746;28;20207;-75
2024/03/12 02:34:53;;;;;;;4.65;4.25;;;5.30;99.90;;;;;;5012936;28;20661;-75
2024/03/12 02:37:21;;;;;;;4.22;3.42;;;5.20;99.90;;;;;;5025131;28;20723;-75
2024/03/12 02:39:48;;;;;;;3.88;3.58;;;5.20;99.90;;;;;;5011532;28;20589;-75
2024/03/12 02:42:16;;;;;;;4.05;3.53;;;5.20;99.90;;;;;;5022048;28;20685;-75
2024/03/12 02:44:43;;;;;;;4.43;3.20;;;5.20;99.90;;;;;;5015978;28;20225;-75
2024/03/12 02:47:10;;;;;;;5.00;4.28;;;5.20;99.90;;;;;;5013337;28;20655;-75
2024/03/12 02:49:37;;;;;;;7.75;3.63;;;5.20;99.90;;;;;;5012414;28;20196;-75
2024/03/12 02:52:04;;;;;;;4.10;3.80;;;5.10;99.90;;;;;;5024367;28;20300;-75
2024/03/12 02:54:32;;;;;;;4.70;3.63;;;5.10;99.90;;;;;;5016935;28;20314;-75
2024/03/12 02:56:59;;;;;;;4.32;3.85;;;5.10;99.90;;;;;;5034319;28;20202;-75
2024/03/12 02:59:28;;;;;;;4.30;3.20;;;5.00;99.90;;;;;;5019367;28;20217;-75
2024/03/12 03:01:56;;;;;;;4.10;3.70;;;4.90;99.90;;;;;;5093239;27;20669;-75
2024/03/12 03:04:23;;;;;;;3.35;3.15;;;4.90;99.90;;;;;;5034121;28;20569;-75
2024/03/12 03:06:52;;;;;;;9.20;4.28;;;4.80;99.90;;;;;;5045265;28;20338;-75
2024/03/12 03:09:21;;;;;;;4.22;3.50;;;4.80;99.90;;;;;;5038430;28;20189;-75
2024/03/12 03:11:49;;;;;;;4.20;3.80;;;4.80;99.90;;;;;;5020473;28;20201;-75
2024/03/12 03:14:17;;;;;;;5.35;4.32;;;4.70;99.90;;;;;;5024625;28;20733;-76
2024/03/12 03:16:48;;;;;;;3.85;3.55;;;4.60;99.90;;;;;;5012164;28;20235;-75
2024/03/12 03:19:15;;;;;;;4.43;4.03;;;4.60;99.90;;;;;;5006756;28;20232;-75
2024/03/12 03:21:43;;;;;;;5.10;3.60;;;4.60;99.90;;;;;;5044017;28;20232;-75
2024/03/12 03:24:10;;;;;;;3.88;3.55;;;4.70;99.90;;;;;;5072706;28;20547;-75
2024/03/12 03:26:39;;;;;;;4.00;3.60;;;4.80;99.90;;;;;;5015258;28;20545;-75
2024/03/12 03:29:07;;;;;;;3.95;3.55;;;4.80;99.90;;;;;;5012596;28;20211;-75
2024/03/12 03:31:35;;;;;;;3.47;3.17;;;4.90;99.90;;;;;;5026231;28;20264;-75
2024/03/12 03:34:04;;;;;;;3.88;3.53;;;5.00;99.90;;;;;;5015615;28;20301;-75
2024/03/12 03:36:32;;;;;;;4.38;3.97;;;5.00;99.90;;;;;;5024872;28;20578;-75
2024/03/12 03:39:00;;;;;;;4.03;3.70;;;5.00;99.90;;;;;;5008844;28;20290;-75
2024/03/12 03:41:30;;;;;;;3.60;3.30;;;5.10;99.90;;;;;;5026357;28;20200;-75
2024/03/12 03:43:58;;;;;;;3.60;3.05;;;5.20;99.90;;;;;;5016598;28;20209;-75
2024/03/12 03:46:25;;;;;;;4.10;3.70;;;5.30;99.90;;;;;;5014083;28;20664;-75
2024/03/12 03:48:55;;;;;;;4.28;3.88;;;5.40;99.90;;;;;;5020947;28;20693;-75
2024/03/12 03:51:25;;;;;;;3.67;3.45;;;5.50;99.90;;;;;;5105712;27;20205;-75
2024/03/12 03:53:52;;;;;;;3.95;3.63;;;5.50;99.90;;;;;;5046361;27;20603;-75
2024/03/12 03:56:19;;;;;;;4.65;4.25;;;5.50;99.90;;;;;;5029533;28;20200;-76
2024/03/12 03:58:46;;;;;;;4.22;3.70;;;5.60;99.90;;;;;;5012438;28;20212;-75
2024/03/12 04:01:13;;;;;;;3.53;3.22;;;5.60;99.90;;;;;;5028446;28;20201;-75
2024/03/12 04:03:40;;;;;;;3.90;3.60;;;5.70;99.90;;;;;;5046087;27;20217;-75
2024/03/12 04:06:07;;;;;;;3.50;3.22;;;5.70;99.90;;;;;;5036264;28;20204;-75
2024/03/12 04:08:36;;;;;;;3.63;3.33;;;5.70;99.90;;;;;;5068497;27;20193;-75
2024/03/12 04:11:04;;;;;;;3.30;3.00;;;5.70;99.90;;;;;;5015866;28;20318;-75
2024/03/12 04:13:32;;;;;;;2.78;2.55;;;5.80;99.90;;;;;;5021468;28;20190;-76
2024/03/12 04:15:59;;;;;;;3.25;3.00;;;5.70;99.90;;;;;;5037895;28;20205;-75
2024/03/12 04:18:25;;;;;;;4.03;3.63;;;5.80;99.90;;;;;;5030292;28;20819;-75
2024/03/12 04:20:53;;;;;;;4.00;3.60;;;5.90;99.90;;;;;;5043063;27;20274;-75
2024/03/12 04:23:20;;;;;;;5.68;3.42;;;5.90;99.90;;;;;;5075718;27;20300;-75
2024/03/12 04:25:48;;;;;;;8.40;3.40;;;5.90;99.90;;;;;;5026647;28;20205;-75
2024/03/12 04:28:16;;;;;;;3.70;3.40;;;5.90;99.90;;;;;;5028490;28;20211;-75
2024/03/12 04:30:43;;;;;;;4.95;3.58;;;5.90;99.90;;;;;;5033596;28;20193;-75
2024/03/12 04:33:10;;;;;;;3.55;2.90;;;5.90;99.90;;;;;;5022914;28;20678;-75
2024/03/12 04:35:37;;;;;;;3.90;3.45;;;5.90;99.90;;;;;;5029965;27;20224;-75
2024/03/12 04:38:04;;;;;;;3.45;3.15;;;5.90;99.90;;;;;;5055051;27;20225;-75
2024/03/12 04:40:31;;;;;;;3.72;3.42;;;5.90;99.90;;;;;;5026887;27;20205;-75
2024/03/12 04:42:59;;;;;;;3.53;3.20;;;6.00;99.90;;;;;;5063096;27;20291;-75
2024/03/12 04:45:26;;;;;;;3.85;3.08;;;6.00;99.90;;;;;;5068188;27;20207;-75
2024/03/12 04:47:52;;;;;;;7.72;3.80;;;6.10;99.90;;;;;;5030027;28;20213;-76
2024/03/12 04:50:22;;;;;;;4.28;3.30;;;6.00;99.90;;;;;;5034919;27;20193;-76
2024/03/12 04:52:49;;;;;;;2.45;2.25;;;6.10;99.90;;;;;;5082943;27;20793;-75
2024/03/12 04:55:16;;;;;;;3.25;2.95;;;6.10;99.90;;;;;;5039883;28;20205;-76
2024/03/12 04:57:43;;;;;;;3.25;2.97;;;6.30;99.90;;;;;;5022962;28;20201;-76
2024/03/12 05:00:18;;;;;;;3.20;2.92;;;6.20;99.90;;;;;;5013398;28;20590;-75
2024/03/12 05:02:45;;;;;;;3.80;2.92;;;6.20;99.90;;;;;;5033367;28;20679;-76
2024/03/12 05:05:17;;;;;;;3.72;3.33;;;6.20;99.90;;;;;;5012048;28;20219;-76
2024/03/12 05:07:44;;;;;;;3.15;2.60;;;6.20;99.90;;;;;;5020801;28;20201;-75
2024/03/12 05:10:11;;;;;;;3.65;2.80;;;6.20;99.90;;;;;;5045353;28;20212;-75
2024/03/12 05:12:37;;;;;;;2.47;2.28;;;6.20;99.90;;;;;;5038117;27;20634;-75
2024/03/12 05:15:07;;;;;;;3.92;2.75;;;6.20;99.90;;;;;;5030031;28;20210;-75
2024/03/12 05:17:36;;;;;;;3.22;2.97;;;6.20;99.90;;;;;;5027420;28;20284;-75
2024/03/12 05:20:06;;;;;;;5.78;4.25;;;6.20;99.90;;;;;;5013428;28;20222;-75
2024/03/12 05:22:32;;;;;;;4.70;2.75;;;6.20;99.90;;;;;;5009788;28;20203;-76
2024/03/12 05:25:01;;;;;;;4.45;3.95;;;6.20;99.90;;;;;;5031105;28;20386;-76
2024/03/12 05:27:35;;;;;;;3.28;2.67;;;6.20;99.90;;;;;;5034248;28;20249;-76
2024/03/12 05:30:10;;;;;;;3.70;2.85;;;6.30;99.90;;;;;;5023821;28;20239;-76
2024/03/12 05:32:40;;;;;;;4.20;3.15;;;6.30;99.90;;;;;;5062331;27;20291;-76
2024/03/12 05:35:17;;;;;;;2.72;2.45;;;6.30;99.90;;;;;;5060443;27;20214;-76
2024/03/12 05:38:01;;;;;;;3.70;3.40;;;6.20;99.90;;;;;;5033186;28;20252;-75
2024/03/12 05:40:39;;;;;;;3.87;3.50;;;6.20;99.90;;;;;;5031707;28;20197;-75
2024/03/12 05:48:37;;;;;;;4.47;3.35;;;6.30;99.90;;;;;;5033432;28;21099;-74
2024/03/12 05:51:05;;;;;;;3.33;2.90;;;6.40;99.90;;;;;;5027641;28;20564;-73
2024/03/12 05:53:32;;;;;;;4.10;3.00;;;6.40;99.90;;;;;;5025244;28;20667;-75
2024/03/12 05:55:59;;;;;;;3.22;2.92;;;6.40;99.90;;;;;;5045930;27;20684;-74
2024/03/12 05:58:26;;;;;;;3.92;3.05;;;6.40;99.90;;;;;;5060568;27;20223;-74
2024/03/12 06:00:52;;;;;;;3.50;3.20;;;6.40;99.90;;;;;;5046918;27;20680;-72
2024/03/12 06:03:20;;;;;;;4.00;3.20;;;6.40;99.90;;;;;;5042967;27;21210;-73
2024/03/12 06:05:49;;;;;;;3.95;3.65;;;6.40;99.90;;;;;;5014416;28;20643;-74
2024/03/12 06:08:15;;;;;;;3.13;2.93;;;6.40;99.90;;;;;;5013441;28;20203;-77
2024/03/12 06:10:42;;;;;;;3.63;3.33;;;6.40;99.90;;;;;;5072753;27;20987;-76
2024/03/12 06:13:12;;;;;;;3.10;2.80;;;6.40;99.90;;;;;;5036859;28;21063;-76
2024/03/12 06:15:39;;;;;;;4.67;3.60;;;6.40;99.90;;;;;;5032644;28;20651;-76
2024/03/12 06:18:05;;;;;;;8.10;3.40;;;6.40;99.90;;;;;;5052866;28;20628;-75
2024/03/12 06:20:32;;;;;;;5.00;3.43;;;6.40;99.90;;;;;;5062593;27;20978;-77
2024/03/12 06:23:01;;;;;;;3.45;3.15;;;6.40;99.90;;;;;;5043020;28;20630;-77
2024/03/12 06:25:27;;;;;;;3.42;3.13;;;6.60;99.90;;;;;;5039973;28;20683;-77
2024/03/12 06:27:54;;;;;;;4.30;3.90;;;6.50;99.90;;;;;;5052634;27;20219;-75
2024/03/12 06:30:20;;;;;;;3.97;3.23;;;6.50;99.90;;;;;;5026520;28;20196;-77
2024/03/12 06:32:47;;;;;;;5.20;4.33;;;6.50;99.90;;;;;;5045604;28;20694;-77
2024/03/12 06:35:14;;;;;;;6.90;5.47;;;6.50;99.90;;;;;;5044292;28;20698;-76
2024/03/12 06:37:40;;;;;;;4.25;3.85;;;6.60;99.90;;;;;;5104794;28;20641;-76
2024/03/12 06:40:10;;;;;;;4.27;3.37;;;6.60;99.90;;;;;;5089852;28;20216;-76
2024/03/12 06:42:37;;;;;;;4.90;3.83;;;6.70;99.90;;;;;;5066072;28;20611;-76
2024/03/12 06:45:04;;;;;;;3.13;2.90;;;6.70;99.90;;;;;;5127777;28;20633;-77
2024/03/12 06:47:36;;;;;;;3.77;3.47;;;6.70;99.90;;;;;;5034118;28;20634;-76
2024/03/12 06:50:07;;;;;;;4.20;3.60;;;6.70;99.90;;;;;;5035976;28;20623;-76
2024/03/12 06:52:34;;;;;;;6.43;3.63;;;6.80;99.90;;;;;;5032529;28;20626;-76
2024/03/12 06:55:04;;;;;;;7.80;4.17;;;6.80;99.90;;;;;;5033331;28;21174;-76
2024/03/12 06:57:34;;;;;;;4.17;3.73;;;6.80;99.90;;;;;;5059418;28;20691;-77
2024/03/12 07:00:08;;;;;;;5.53;4.43;;;6.80;99.90;;;;;;5129557;27;20657;-76
2024/03/12 07:02:38;;;;;;;3.73;3.43;;;6.90;99.90;;;;;;5006224;28;20628;-76
2024/03/12 07:05:06;;;;;;;3.73;3.30;;;7.00;99.90;;;;;;5038325;28;20626;-76
2024/03/12 07:07:33;;;;;;;4.23;3.63;;;7.00;99.90;;;;;;5094025;28;20653;-76
2024/03/12 07:10:03;;;;;;;5.23;3.93;;;7.00;99.90;;;;;;5100363;28;20622;-76
2024/03/12 07:12:32;;;;;;;4.30;2.73;;;6.90;99.90;;;;;;5057148;27;20626;-76
2024/03/12 07:15:00;;;;;;;4.47;3.87;;;6.90;99.90;;;;;;5133858;27;20626;-76
2024/03/12 07:17:27;;;;;;;3.87;3.50;;;7.00;99.90;;;;;;5054152;27;20626;-76
2024/03/12 07:19:57;;;;;;;3.40;3.10;;;7.00;99.90;;;;;;5108055;27;20728;-76
2024/03/12 07:22:25;;;;;;;4.30;3.57;;;7.10;99.90;;;;;;5091781;27;20618;-76
2024/03/12 07:24:51;;;;;;;4.10;3.70;;;7.20;99.90;;;;;;5043633;28;20717;-76
2024/03/12 07:27:18;;;;;;;4.20;3.80;;;7.10;99.90;;;;;;5049949;27;21476;-76
2024/03/12 07:29:47;;;;;;;3.50;3.20;;;7.10;99.90;;;;;;5133495;27;20706;-76
2024/03/12 07:32:14;;;;;;;2.93;2.70;;;7.10;99.90;;;;;;5064703;27;20725;-76
2024/03/12 07:34:42;;;;;;;2.50;2.30;;;7.10;99.90;;;;;;5097004;27;20654;-76
2024/03/12 07:37:09;;;;;;;3.73;2.90;;;7.20;99.90;;;;;;5102276;27;20626;-77
2024/03/12 07:39:36;;;;;;;3.70;3.30;;;7.20;99.90;;;;;;5058040;27;20728;-76
2024/03/12 07:42:06;;;;;;;5.60;3.30;;;7.30;99.90;;;;;;5133324;27;20612;-76
2024/03/12 07:44:33;;;;;;;3.03;2.57;;;7.30;99.90;;;;;;5055438;27;20633;-76
2024/03/12 07:47:03;;;;;;;2.73;2.53;;;7.30;99.90;;;;;;5069852;27;20710;-76
2024/03/12 07:49:32;;;;;;;2.23;2.10;;;7.20;99.90;;;;;;5035254;28;20630;-76
2024/03/12 07:52:00;;;;;;;2.57;2.20;;;7.20;99.90;;;;;;5057805;27;20680;-76
2024/03/12 07:54:27;;;;;;;1.33;1.23;;;7.30;99.90;;;;;;5082997;27;21161;-76
2024/03/12 07:56:54;;;;;;;2.93;1.87;;;7.30;99.90;;;;;;5047928;28;20691;-76
2024/03/12 07:59:23;;;;;;;1.70;1.30;;;7.30;99.90;;;;;;5115037;27;20652;-77
2024/03/12 08:01:52;;;;;;;1.70;1.60;;;7.30;99.90;;;;;;5083596;27;20721;-76
2024/03/12 08:04:22;;;;;;;1.70;1.60;;;7.40;99.90;;;;;;5078123;27;20671;-76
2024/03/12 08:06:48;;;;;;;1.40;1.20;;;7.30;99.90;;;;;;5120367;27;21195;-76
2024/03/12 08:09:15;;;;;;;1.37;1.27;;;7.30;99.90;;;;;;5048194;28;21237;-76
2024/03/12 08:11:42;;;;;;;1.43;1.27;;;7.30;99.90;;;;;;5125241;27;20614;-76
2024/03/12 08:14:09;;;;;;;4.40;1.37;;;7.30;99.90;;;;;;5075102;27;20626;-76
2024/03/12 08:16:36;;;;;;;2.10;1.33;;;7.30;99.90;;;;;;5084748;27;20974;-76
2024/03/12 08:19:04;;;;;;;2.90;1.53;;;7.30;99.90;;;;;;5114665;27;20662;-76
2024/03/12 08:21:33;;;;;;;1.73;1.63;;;7.30;99.90;;;;;;5048319;28;21071;-76
2024/03/12 08:24:00;;;;;;;2.83;1.40;;;7.30;99.90;;;;;;5010263;28;20619;-76
2024/03/12 08:26:27;;;;;;;2.63;1.70;;;7.30;99.90;;;;;;5042333;28;20610;-76
2024/03/12 08:28:55;;;;;;;1.57;1.47;;;7.30;99.90;;;;;;5093353;27;21175;-76
2024/03/12 08:31:22;;;;;;;1.53;1.43;;;7.30;99.90;;;;;;5104871;27;20625;-76
2024/03/12 08:33:49;;;;;;;1.40;1.30;;;7.40;99.90;;;;;;5054703;27;20644;-76
2024/03/12 08:36:16;;;;;;;1.93;1.83;;;7.40;99.90;;;;;;5131285;27;20607;-76
2024/03/12 08:38:44;;;;;;;1.77;1.67;;;7.40;99.90;;;;;;5059127;27;20642;-76
2024/03/12 08:41:11;;;;;;;2.87;1.80;;;7.50;99.90;;;;;;5100550;27;20745;-76
2024/03/12 08:43:38;;;;;;;2.03;1.80;;;7.50;99.90;;;;;;5098235;27;20725;-77
2024/03/12 08:46:06;;;;;;;1.60;1.50;;;7.60;99.90;;;;;;5060929;27;21016;-76
2024/03/12 08:48:34;;;;;;;2.40;1.70;;;7.50;99.90;;;;;;5029801;27;20623;-76
2024/03/12 08:51:02;;;;;;;2.43;1.80;;;7.50;99.90;;;;;;5031894;28;20694;-76
2024/03/12 08:53:29;;;;;;;2.30;2.10;;;7.50;99.90;;;;;;5028659;28;20623;-76
2024/03/12 08:55:58;;;;;;;3.13;2.40;;;7.70;99.90;;;;;;5036960;28;20646;-76
2024/03/12 08:58:25;;;;;;;2.30;1.97;;;7.70;99.90;;;;;;5087798;27;20755;-76
2024/03/12 09:00:52;;;;;;;1.53;1.43;;;7.70;99.90;;;;;;5083669;27;20654;-76
2024/03/12 09:03:19;;;;;;;3.23;1.60;;;7.60;99.90;;;;;;5047244;28;20725;-76
2024/03/12 09:05:46;;;;;;;1.70;1.57;;;7.70;99.90;;;;;;5115748;27;20623;-76
2024/03/12 09:08:13;;;;;;;2.30;1.40;;;7.70;99.90;;;;;;5081452;27;20721;-76
2024/03/12 09:10:41;;;;;;;2.23;2.10;;;7.70;99.90;;;;;;5076342;27;20611;-76
2024/03/12 09:13:11;;;;;;;1.60;1.37;;;7.80;99.90;;;;;;5120895;27;20622;-76
2024/03/12 09:15:38;;;;;;;2.70;1.83;;;7.90;99.90;;;;;;5049378;27;20631;-76
2024/03/12 09:18:06;;;;;;;2.30;2.07;;;7.80;99.90;;;;;;5065232;27;20619;-76
2024/03/12 09:20:33;;;;;;;2.63;2.17;;;7.90;99.90;;;;;;5072136;27;21256;-76
2024/03/12 09:23:00;;;;;;;2.00;1.60;;;8.00;99.90;;;;;;5085326;27;20656;-76
2024/03/12 09:25:27;;;;;;;2.20;1.80;;;8.00;99.90;;;;;;5059856;27;20618;-76
2024/03/12 09:27:54;;;;;;;2.00;1.80;;;8.10;99.90;;;;;;5046406;28;20611;-76
2024/03/12 09:30:23;;;;;;;2.33;1.90;;;8.00;99.90;;;;;;5046779;28;20615;-77
2024/03/12 09:32:51;;;;;;;2.93;2.17;;;8.10;99.90;;;;;;5112791;27;20622;-77
2024/03/12 09:35:18;;;;;;;2.67;2.03;;;8.10;99.90;;;;;;5083646;27;20622;-76
2024/03/12 09:37:46;;;;;;;2.43;2.10;;;8.10;99.90;;;;;;5073995;27;21170;-76
2024/03/12 09:40:13;;;;;;;4.03;2.00;;;8.20;99.90;;;;;;5122678;27;20692;-77
2024/03/12 09:42:45;;;;;;;5.83;2.60;;;8.30;99.90;;;;;;5046426;28;20610;-77
2024/03/12 09:45:12;;;;;;;2.07;1.80;;;8.30;99.90;;;;;;5122832;27;20627;-77
2024/03/12 09:47:42;;;;;;;3.10;2.17;;;8.30;99.70;;;;;;5061142;27;20625;-76
2024/03/12 09:50:11;;;;;;;5.53;2.30;;;8.30;99.90;;;;;;5028297;28;21081;-76
2024/03/12 09:52:39;;;;;;;1.93;1.77;;;8.30;99.80;;;;;;5031012;28;20626;-76
2024/03/12 09:55:10;;;;;;;1.73;1.50;;;8.20;99.90;;;;;;5047397;27;20626;-76
2024/03/12 09:57:38;;;;;;;2.30;1.97;;;8.30;99.80;;;;;;5129517;27;20606;-76
2024/03/12 10:00:11;;;;;;;3.13;2.63;;;8.20;99.70;;;;;;5060798;27;20651;-76
2024/03/12 10:02:39;;;;;;;3.90;2.57;;;8.10;99.90;;;;;;5099459;27;21029;-76
2024/03/12 10:05:07;;;;;;;2.93;2.10;;;8.20;99.90;;;;;;5095809;27;20618;-77
2024/03/12 10:07:36;;;;;;;2.90;2.00;;;8.20;99.90;;;;;;5060559;27;20677;-76
2024/03/12 10:10:06;;;;;;;3.73;3.00;;;8.20;99.90;;;;;;5130068;27;20619;-76
2024/03/12 10:12:35;;;;;;;2.73;2.27;;;8.30;99.90;;;;;;5046515;28;20740;-76
2024/03/12 10:15:02;;;;;;;2.80;2.50;;;8.30;99.90;;;;;;5110838;27;20631;-76
2024/03/12 10:17:28;;;;;;;3.97;2.57;;;8.40;99.90;;;;;;5084401;27;20622;-76
2024/03/12 10:20:07;;;;;;;2.97;2.30;;;8.40;99.80;;;;;;5070959;27;20773;-76
2024/03/12 10:22:34;;;;;;;6.13;4.13;;;8.40;99.80;;;;;;5117761;27;21190;-76
2024/03/12 10:25:10;;;;;;;12.63;3.57;;;8.50;99.90;;;;;;5035307;28;20666;-76
2024/03/12 10:27:52;;;;;;;3.43;2.17;;;8.50;99.90;;;;;;5045057;28;20653;-76
2024/03/12 10:30:25;;;;;;;2.43;2.23;;;8.50;99.80;;;;;;5117238;27;20722;-77
2024/03/12 10:32:52;;;;;;;2.33;2.13;;;8.50;99.80;;;;;;5074431;27;20729;-77
2024/03/12 10:35:20;;;;;;;3.97;2.10;;;8.50;99.70;;;;;;5081815;28;21045;-76
2024/03/12 10:37:50;;;;;;;1.87;1.60;;;8.50;99.60;;;;;;5112650;28;20623;-76
2024/03/12 10:40:19;;;;;;;2.47;2.27;;;8.60;99.80;;;;;;5045979;28;20660;-76
2024/03/12 10:42:57;;;;;;;4.70;2.00;;;8.50;99.80;;;;;;5005751;28;20624;-76
2024/03/12 10:45:24;;;;;;;1.70;1.60;;;8.50;99.80;;;;;;5040172;28;20718;-76
2024/03/12 10:47:51;;;;;;;2.80;1.77;;;8.50;99.60;;;;;;5045952;28;20629;-76
2024/03/12 10:50:23;;;;;;;2.33;2.13;;;8.60;99.40;;;;;;5048178;28;20980;-76
2024/03/12 10:52:54;;;;;;;2.10;1.90;;;8.60;99.40;;;;;;5044520;28;20721;-76
2024/03/12 10:55:22;;;;;;;1.90;1.80;;;8.70;99.40;;;;;;5049735;28;20716;-76
2024/03/12 10:57:50;;;;;;;1.77;1.60;;;8.80;99.20;;;;;;5132668;27;21016;-76
2024/03/12 11:00:20;;;;;;;2.13;1.97;;;8.70;99.10;;;;;;5068931;27;20658;-76
2024/03/12 11:02:49;;;;;;;2.20;1.63;;;8.60;99.10;;;;;;5096440;27;20702;-76
2024/03/12 11:05:19;;;;;;;6.07;2.60;;;8.60;99.40;;;;;;5104943;27;20978;-76
2024/03/12 11:07:47;;;;;;;1.30;1.20;;;8.60;99.50;;;;;;5058856;27;20668;-76
2024/03/12 11:10:14;;;;;;;2.97;2.07;;;8.60;99.00;;;;;;5133768;27;20614;-76
2024/03/12 11:12:43;;;;;;;1.77;1.63;;;8.60;99.20;;;;;;5056534;27;20636;-76
2024/03/12 11:15:10;;;;;;;2.10;1.40;;;8.70;99.20;;;;;;5106928;27;21178;-76
2024/03/12 11:17:38;;;;;;;3.20;1.50;;;8.80;99.20;;;;;;5094701;27;20622;-76
2024/03/12 11:20:06;;;;;;;2.23;1.27;;;8.80;99.00;;;;;;5066980;27;20646;-76
2024/03/12 11:22:34;;;;;;;1.20;1.10;;;8.70;99.10;;;;;;5133401;27;20615;-76
2024/03/12 11:25:04;;;;;;;1.77;1.10;;;8.70;98.90;;;;;;5020174;28;20668;-76
2024/03/12 11:27:34;;;;;;;1.47;1.00;;;8.70;98.50;;;;;;5045141;28;20624;-76
2024/03/12 11:30:16;;;;;;;4.67;3.53;;;8.60;98.50;;;;;;5098840;27;20624;-76
2024/03/12 11:32:45;;;;;;;5.70;3.07;;;8.70;99.10;;;;;;5093885;27;20662;-76
2024/03/12 11:35:32;;;;;;;4.10;3.00;;;8.80;98.60;;;;;;5067702;27;20963;-76
2024/03/12 11:38:04;;;;;;;2.60;1.83;;;8.80;98.50;;;;;;5121456;27;20626;-76
2024/03/12 11:40:36;;;;;;;2.00;1.30;;;8.90;98.70;;;;;;5048727;28;20747;-76
2024/03/12 11:43:04;;;;;;;3.73;1.60;;;9.00;98.20;;;;;;5132586;27;20618;-76
2024/03/12 11:45:41;;;;;;;2.20;1.00;;;8.90;98.40;;;;;;5068293;27;21234;-76
2024/03/12 11:48:08;;;;;;;1.20;1.10;;;8.90;98.30;;;;;;5044088;28;20647;-76
2024/03/12 11:50:39;;;;;;;1.13;1.03;;;8.80;98.20;;;;;;5044583;28;20730;-75
2024/03/12 11:53:17;;;;;;;3.03;1.37;;;8.70;98.40;;;;;;5040875;28;20698;-76
2024/03/12 11:55:57;;;;;;;1.90;1.60;;;8.60;98.40;;;;;;5047771;28;20630;-76
2024/03/12 11:58:32;;;;;;;2.03;1.67;;;8.60;98.80;;;;;;5132289;27;20614;-76
2024/03/12 12:00:59;;;;;;;2.63;2.40;;;8.60;98.50;;;;;;5055017;27;21280;-76
2024/03/12 12:03:26;;;;;;;3.50;2.40;;;8.50;98.00;;;;;;5106508;27;20630;-76
2024/03/12 12:05:54;;;;;;;4.00;2.20;;;8.50;97.90;;;;;;5093434;27;21243;-76
2024/03/12 12:08:21;;;;;;;4.40;2.07;;;8.40;98.10;;;;;;5066481;27;20975;-76
2024/03/12 12:11:00;;;;;;;2.93;1.93;;;8.30;98.30;;;;;;5132749;27;20717;-76
2024/03/12 12:13:27;;;;;;;2.07;1.70;;;8.20;98.60;;;;;;5008811;28;20623;-76
2024/03/12 12:15:59;;;;;;;1.60;1.50;;;8.10;99.00;;;;;;5041586;28;20721;-76
2024/03/12 12:18:26;;;;;;;3.30;1.60;;;8.10;99.20;;;;;;5102190;27;20641;-76
2024/03/12 12:20:54;;;;;;;2.20;1.33;;;8.10;98.80;;;;;;5097042;27;20665;-77
2024/03/12 12:23:23;;;;;;;1.30;1.20;;;8.10;99.00;;;;;;5063621;27;20697;-77
2024/03/12 12:25:53;;;;;;;1.33;1.10;;;8.10;99.40;;;;;;5040701;27;21212;-77
2024/03/12 12:28:24;;;;;;;2.60;1.30;;;8.20;99.80;;;;;;5131934;27;20638;-77
2024/03/12 12:30:54;;;;;;;2.27;1.50;;;8.30;99.90;;;;;;5064118;27;20614;-77
2024/03/12 12:33:23;;;;;;;2.17;1.90;;;8.40;99.90;;;;;;5097014;27;20638;-77
2024/03/12 12:35:52;;;;;;;1.70;1.60;;;8.50;99.90;;;;;;5100510;27;20678;-77
2024/03/12 12:38:21;;;;;;;4.17;3.00;;;8.60;99.90;;;;;;5059107;27;20626;-77
2024/03/12 12:40:49;;;;;;;3.63;2.17;;;8.60;99.90;;;;;;5132120;27;20681;-77
2024/03/12 12:43:16;;;;;;;7.33;3.77;;;8.60;99.90;;;;;;5052839;28;20630;-76
2024/03/12 12:45:46;;;;;;;10.20;6.80;;;8.60;99.70;;;;;;5106945;27;20721;-77
2024/03/12 12:48:13;;;;;;;7.87;5.13;;;8.40;99.30;;;;;;5054067;27;20682;-77
2024/03/12 12:50:39;;;;;;;8.73;4.37;;;8.50;98.70;;;;;;5040913;28;20734;-77
2024/03/12 12:53:09;;;;;;;5.90;4.03;;;8.40;98.80;;;;;;5037336;28;20726;-77
2024/03/12 12:55:38;;;;;;;5.87;4.27;;;8.50;99.10;;;;;;5047075;28;20622;-77
2024/03/12 12:58:06;;;;;;;6.83;4.23;;;8.40;98.80;;;;;;5116506;27;20614;-77
2024/03/12 13:00:36;;;;;;;6.60;4.77;;;8.30;98.80;;;;;;5080323;27;20703;-77
2024/03/12 13:03:17;;;;;;;7.60;5.57;;;8.30;99.10;;;;;;5079843;27;20618;-77
2024/03/12 13:05:44;;;;;;;6.37;5.10;;;8.30;98.80;;;;;;5096482;27;20623;-77
2024/03/12 13:08:22;;;;;;;8.40;5.13;;;8.30;99.10;;;;;;5068957;27;21078;-75
2024/03/12 13:11:04;;;;;;;9.60;6.53;;;8.50;99.60;;;;;;5046393;28;20626;-76